This is the latest recevied weather packets stored in our database for station/object EA4BHK-10. If no packets are shown the sender has not sent any weather packets the latest 10 day(s).
| Time | Temp. | Humidity | Pressure | Rain* | Wind** | Luminosity | Snow |
|---|---|---|---|---|---|---|---|
| 1777928769 | 9.44° C | 75% | 1017.4 hPa | - | - | - | - |
| 1777927862 | 9.44° C | 75% | 1017.4 hPa | - | - | - | - |
| 1777927046 | 9.44° C | 73% | 1017.3 hPa | - | - | - | - |
| 1777926962 | 9.44° C | 73% | 1017.3 hPa | - | - | - | - |
| 1777926062 | 10.56° C | 71% | 1016.7 hPa | - | - | - | - |
| 1777925162 | 10.56° C | 71% | 1016.3 hPa | - | - | - | - |
| 1777924261 | 11.11° C | 70% | 1015.9 hPa | - | - | - | - |
| 1777923362 | 11.67° C | 69% | 1015.6 hPa | - | - | - | - |
| 1777922469 | 11.67° C | 67% | 1015.3 hPa | - | - | - | - |
| 1777921562 | 12.22° C | 64% | 1015 hPa | - | - | - | - |
| 1777920662 | 12.22° C | 64% | 1014.7 hPa | - | - | - | - |
| 1777919769 | 12.78° C | 63% | 1014.4 hPa | - | - | - | - |
| 1777918862 | 13.33° C | 60% | 1014 hPa | - | - | - | - |
| 1777918119 | 13.89° C | 61% | 1013.9 hPa | - | - | - | - |
| 1777917971 | 13.89° C | 61% | 1013.9 hPa | - | - | - | - |
| 1777917079 | 14.44° C | 55% | 1013.7 hPa | - | - | - | - |
| 1777916162 | 14.44° C | 58% | 1013.7 hPa | - | - | - | - |
| 1777915262 | 15° C | 53% | 1013.6 hPa | - | - | - | - |
| 1777914362 | 15° C | 54% | 1013.5 hPa | - | - | - | - |
| 1777913469 | 15° C | 51% | 1013.4 hPa | - | - | - | - |
| 1777912561 | 15.56° C | 54% | 1013.4 hPa | - | - | - | - |
| 1777911665 | 15° C | 51% | 1013.4 hPa | - | - | - | - |
| 1777910762 | 15° C | 51% | 1013.4 hPa | - | - | - | - |
| 1777909862 | 15° C | 56% | 1013.5 hPa | - | - | - | - |
| 1777908962 | 15.56° C | 56% | 1013.5 hPa | - | - | - | - |
* Rain since midnight (hover to see other rain measurements)
** Current wind speed in m/s (hover to see current wind gust speed)